Time;durP1;ratioP1;P1;durP2;ratioP2;P2;SDS_P1;SDS_P2;PMS_P1;PMS_P2;Temp;Humidity;BMP_temperature;BMP_pressure;BME280_temperature;BME280_humidity;BME280_pressure;Samples;Min_cycle;Max_cycle;Signal;HPM_P1;HPM_P2
2021/05/21 00:01:00;;;;;;;19.83;8.48;;;;;;;12.57;79.21;97798.44;5048749;28;20033;-69
2021/05/21 00:03:26;;;;;;;15.60;7.97;;;;;;;12.62;78.54;97787.25;5045623;28;20127;-69
2021/05/21 00:05:52;;;;;;;18.40;8.32;;;;;;;12.61;78.83;97787.59;5036629;28;20041;-68
2021/05/21 00:08:18;;;;;;;20.67;8.07;;;;;;;12.58;78.97;97788.28;5044240;28;20037;-69
2021/05/21 00:10:44;;;;;;;16.90;8.38;;;;;;;12.57;78.63;97781.97;5040021;28;20056;-68
2021/05/21 00:13:11;;;;;;;17.23;8.57;;;;;;;12.59;78.94;97787.13;5044983;28;20044;-69
2021/05/21 00:15:38;;;;;;;22.40;9.68;;;;;;;12.62;78.77;97786.47;5043721;28;20053;-69
2021/05/21 00:18:04;;;;;;;16.45;8.85;;;;;;;12.57;78.96;97792.94;5044042;28;20053;-69
2021/05/21 00:20:30;;;;;;;18.58;9.50;;;;;;;12.59;78.93;97789.88;5048516;28;20467;-68
2021/05/21 00:22:57;;;;;;;20.33;8.68;;;;;;;12.52;79.30;97790.41;5047364;28;20052;-69
2021/05/21 00:25:23;;;;;;;23.02;9.45;;;;;;;12.54;79.16;97796.38;5038569;28;20250;-67
2021/05/21 00:27:49;;;;;;;19.70;8.98;;;;;;;12.59;79.01;97795.38;5030630;28;20064;-69
2021/05/21 00:30:16;;;;;;;16.55;9.48;;;;;;;12.57;78.91;97786.69;5047800;28;20053;-69
2021/05/21 00:32:43;;;;;;;15.35;7.32;;;;;;;12.64;78.82;97800.63;5044628;28;22286;-68
2021/05/21 00:35:10;;;;;;;19.60;8.13;;;;;;;12.67;78.66;97805.44;5046865;28;20055;-69
2021/05/21 00:37:36;;;;;;;15.02;7.47;;;;;;;12.77;78.52;97802.28;5041522;28;20053;-69
2021/05/21 00:40:03;;;;;;;14.05;7.07;;;;;;;12.73;78.20;97792.31;5046789;28;20088;-70
2021/05/21 00:42:29;;;;;;;14.40;6.72;;;;;;;12.82;77.79;97816.91;5051520;28;20069;-70
2021/05/21 00:44:56;;;;;;;15.57;7.45;;;;;;;12.86;78.02;97804.91;5051584;28;20515;-69
2021/05/21 00:47:24;;;;;;;15.23;7.82;;;;;;;12.80;78.12;97806.28;5048213;28;20056;-69
2021/05/21 00:49:50;;;;;;;18.77;9.38;;;;;;;12.69;78.18;97799.63;5051666;28;20099;-69
2021/05/21 00:52:17;;;;;;;16.73;7.82;;;;;;;12.80;78.04;97802.72;5047954;28;20052;-70
2021/05/21 00:54:43;;;;;;;13.93;6.07;;;;;;;12.67;78.15;97810.91;5033367;28;20049;-68
2021/05/21 00:57:09;;;;;;;13.07;6.20;;;;;;;12.63;78.04;97812.72;5049171;28;20114;-68
2021/05/21 00:59:35;;;;;;;13.25;5.07;;;;;;;12.77;77.56;97821.47;5052037;28;20505;-69
2021/05/21 01:02:02;;;;;;;10.82;4.88;;;;;;;12.73;77.29;97819.72;5051759;28;20429;-69
2021/05/21 01:04:29;;;;;;;11.73;4.83;;;;;;;12.73;77.01;97836.19;5048004;28;20041;-69
2021/05/21 01:06:55;;;;;;;9.88;4.45;;;;;;;12.74;76.95;97840.53;5049771;28;20048;-70
2021/05/21 01:09:21;;;;;;;12.68;4.95;;;;;;;12.74;76.79;97837.78;5035171;28;20140;-68
2021/05/21 01:11:47;;;;;;;11.35;3.90;;;;;;;12.73;76.93;97833.44;5034916;28;20526;-67
2021/05/21 01:14:13;;;;;;;9.00;3.55;;;;;;;12.69;76.78;97838.00;5038309;28;20386;-69
2021/05/21 01:16:39;;;;;;;6.45;3.05;;;;;;;12.69;76.41;97841.53;5033464;28;20102;-68
2021/05/21 01:19:06;;;;;;;10.43;2.95;;;;;;;12.56;76.38;97832.47;5051690;28;20045;-68
2021/05/21 01:21:36;;;;;;;9.82;3.33;;;;;;;12.54;76.57;97842.97;5048194;28;20057;-70
2021/05/21 01:24:03;;;;;;;8.05;3.05;;;;;;;12.54;76.29;97836.66;5049567;28;20128;-69
2021/05/21 01:26:30;;;;;;;10.52;3.42;;;;;;;12.56;76.39;97832.47;5049696;28;20063;-69
2021/05/21 01:28:56;;;;;;;10.13;3.10;;;;;;;12.63;75.95;97831.91;5042129;28;20073;-68
2021/05/21 01:31:23;;;;;;;13.10;3.20;;;;;;;12.48;75.65;97836.88;5050389;28;20040;-69
2021/05/21 01:33:50;;;;;;;6.32;2.10;;;;;;;12.34;73.19;97842.66;5051069;28;20624;-69
2021/05/21 01:36:16;;;;;;;5.00;2.22;;;;;;;12.32;72.77;97844.09;5028229;28;20053;-69
2021/05/21 01:38:58;;;;;;;3.83;1.93;;;;;;;12.27;72.17;97838.84;5049116;28;20037;-69
2021/05/21 01:41:25;;;;;;;8.27;2.10;;;;;;;12.23;71.67;97833.22;5042871;28;20656;-67
2021/05/21 01:43:55;;;;;;;5.65;1.92;;;;;;;12.24;71.33;97843.03;5040120;28;20491;-68
2021/05/21 01:46:21;;;;;;;8.27;2.25;;;;;;;12.16;71.43;97838.41;5049082;28;20057;-67
2021/05/21 01:48:47;;;;;;;8.65;2.28;;;;;;;12.11;71.47;97830.41;5066251;28;20053;-70
2021/05/21 01:51:13;;;;;;;4.53;1.92;;;;;;;12.05;71.51;97838.81;5048420;28;20056;-70
2021/05/21 01:53:40;;;;;;;7.72;2.20;;;;;;;12.01;71.49;97846.06;5044925;28;20045;-69
2021/05/21 01:56:07;;;;;;;5.57;2.27;;;;;;;12.00;71.63;97858.13;5050380;28;20060;-69
2021/05/21 01:58:33;;;;;;;4.15;1.88;;;;;;;11.98;71.71;97846.72;5049392;28;20072;-70
2021/05/21 02:00:59;;;;;;;7.95;1.75;;;;;;;11.88;71.69;97849.84;5050233;28;20099;-69
2021/05/21 02:03:27;;;;;;;5.38;1.58;;;;;;;11.68;71.22;97837.72;5022224;28;20056;-69
2021/05/21 02:05:54;;;;;;;9.48;1.60;;;;;;;11.74;71.31;97850.91;5049932;28;20091;-70
2021/05/21 02:08:22;;;;;;;6.13;1.75;;;;;;;11.78;71.04;97854.56;5050498;28;20057;-69
2021/05/21 02:10:48;;;;;;;2.58;1.40;;;;;;;11.85;70.45;97856.78;5048279;28;20052;-69
2021/05/21 02:13:15;;;;;;;3.60;1.30;;;;;;;11.83;70.72;97855.50;5048831;28;20041;-69
2021/05/21 02:15:41;;;;;;;5.38;1.20;;;;;;;12.04;69.86;97850.91;5046236;28;20191;-69
2021/05/21 02:18:07;;;;;;;5.05;1.23;;;;;;;12.17;69.52;97860.00;5048119;28;20492;-69
2021/05/21 02:20:33;;;;;;;2.35;1.10;;;;;;;12.26;69.22;97848.19;5049157;28;20184;-70
2021/05/21 02:22:59;;;;;;;10.05;1.30;;;;;;;12.28;69.00;97859.63;5047841;28;20049;-70
2021/05/21 02:25:25;;;;;;;3.65;1.10;;;;;;;12.15;68.78;97856.81;5047333;28;20052;-70
2021/05/21 02:27:51;;;;;;;4.85;1.15;;;;;;;12.07;68.73;97834.94;5048682;28;20040;-70
2021/05/21 02:30:18;;;;;;;3.70;1.10;;;;;;;12.28;68.64;97862.34;5050819;28;20041;-70
2021/05/21 02:32:45;;;;;;;2.58;1.27;;;;;;;12.25;68.92;97863.00;5041481;28;20068;-71
2021/05/21 02:35:12;;;;;;;3.42;1.25;;;;;;;12.05;69.23;97849.78;5048341;28;20501;-70
2021/05/21 02:37:38;;;;;;;2.35;1.08;;;;;;;12.10;69.55;97858.94;5049331;28;20145;-69
2021/05/21 02:40:06;;;;;;;4.65;1.38;;;;;;;12.12;69.66;97848.44;5044331;28;20041;-69
2021/05/21 02:42:33;;;;;;;4.40;1.20;;;;;;;12.18;69.55;97866.28;5029469;28;20386;-70
2021/05/21 02:44:59;;;;;;;6.88;1.70;;;;;;;12.16;69.90;97863.06;5045254;28;20049;-70
2021/05/21 02:47:26;;;;;;;9.75;3.53;;;;;;;12.11;70.37;97855.88;5047109;28;20048;-68
2021/05/21 02:49:56;;;;;;;5.03;1.60;;;;;;;11.95;70.66;97863.03;5049030;28;20523;-69
2021/05/21 02:52:23;;;;;;;5.03;1.80;;;;;;;11.94;70.62;97856.72;5049563;28;20049;-69
2021/05/21 02:54:49;;;;;;;3.50;1.50;;;;;;;12.04;70.83;97861.06;5049143;28;20136;-69
2021/05/21 02:57:15;;;;;;;4.35;1.50;;;;;;;12.04;70.89;97861.88;5049112;28;20408;-68
2021/05/21 02:59:42;;;;;;;6.30;1.50;;;;;;;11.95;71.13;97841.13;5039538;28;20056;-69
2021/05/21 03:02:08;;;;;;;9.00;1.75;;;;;;;11.92;71.22;97834.34;5048870;28;20053;-69
2021/05/21 03:04:35;;;;;;;5.13;1.80;;;;;;;11.92;71.75;97854.31;5048604;28;20519;-68
2021/05/21 03:07:01;;;;;;;5.03;1.60;;;;;;;11.91;71.82;97860.13;5046411;28;20724;-68
2021/05/21 03:09:27;;;;;;;6.10;1.70;;;;;;;11.96;71.67;97862.69;5035002;28;20053;-67
2021/05/21 03:11:53;;;;;;;5.03;1.58;;;;;;;11.99;71.84;97866.69;5047963;28;20045;-69
2021/05/21 03:14:20;;;;;;;4.40;1.70;;;;;;;12.03;71.75;97865.75;5046653;28;20187;-69
2021/05/21 03:16:46;;;;;;;5.00;1.73;;;;;;;12.08;71.62;97837.34;5046512;28;20055;-68
2021/05/21 03:19:12;;;;;;;6.43;1.58;;;;;;;12.07;71.96;97863.13;5050592;28;20530;-69
2021/05/21 03:21:39;;;;;;;4.82;1.65;;;;;;;11.94;72.66;97873.16;5046709;28;20076;-69
2021/05/21 03:24:07;;;;;;;5.28;1.55;;;;;;;11.83;72.95;97867.28;5036266;28;20061;-69
2021/05/21 03:26:33;;;;;;;10.50;1.58;;;;;;;12.00;72.80;97877.31;5046054;28;20576;-69
2021/05/21 03:28:59;;;;;;;6.25;1.63;;;;;;;12.00;73.03;97874.56;5048876;28;20222;-70
2021/05/21 03:31:25;;;;;;;6.22;1.38;;;;;;;11.94;73.74;97881.38;5046918;28;20068;-70
2021/05/21 03:33:52;;;;;;;5.10;1.45;;;;;;;11.85;73.87;97869.66;5044185;28;20051;-69
2021/05/21 03:36:18;;;;;;;6.03;1.27;;;;;;;11.79;74.60;97871.81;5043246;28;20056;-70
2021/05/21 03:38:45;;;;;;;5.82;1.63;;;;;;;11.84;74.55;97877.09;5044701;28;20151;-71
2021/05/21 03:41:11;;;;;;;2.60;1.33;;;;;;;11.87;74.91;97879.16;5040739;28;20565;-70
2021/05/21 03:43:37;;;;;;;5.47;1.85;;;;;;;11.83;75.33;97870.00;5045605;28;20068;-69
2021/05/21 03:46:03;;;;;;;8.32;1.75;;;;;;;11.78;75.64;97883.88;5044054;28;20041;-70
2021/05/21 03:48:30;;;;;;;7.63;1.80;;;;;;;11.61;76.36;97854.66;5044725;28;22474;-69
2021/05/21 03:50:56;;;;;;;6.40;1.70;;;;;;;11.66;76.48;97870.88;5047289;28;20527;-69
2021/05/21 03:53:22;;;;;;;4.30;1.70;;;;;;;11.58;77.13;97871.75;5046292;28;20497;-68
2021/05/21 03:55:49;;;;;;;6.68;1.60;;;;;;;11.62;77.22;97869.94;5047956;28;20128;-69
2021/05/21 03:58:15;;;;;;;6.07;1.58;;;;;;;11.57;77.12;97879.13;5046972;28;20139;-69
2021/05/21 04:00:41;;;;;;;4.63;1.58;;;;;;;11.50;77.32;97878.84;5045399;28;20332;-71
2021/05/21 04:03:08;;;;;;;6.47;2.05;;;;;;;11.47;77.72;97877.56;5046726;28;20041;-68
2021/05/21 04:05:34;;;;;;;8.85;1.80;;;;;;;11.60;77.79;97883.16;5040318;28;20049;-70
2021/05/21 04:08:00;;;;;;;3.05;1.38;;;;;;;11.62;77.77;97889.91;5042758;28;20044;-69
2021/05/21 04:10:27;;;;;;;4.35;1.98;;;;;;;11.54;78.04;97879.81;5042529;28;20513;-70
2021/05/21 04:12:54;;;;;;;2.70;1.50;;;;;;;11.58;77.95;97899.91;5032088;28;20485;-69
2021/05/21 04:15:20;;;;;;;5.10;1.70;;;;;;;11.58;77.71;97883.47;5039222;28;20110;-70
2021/05/21 04:17:46;;;;;;;8.63;1.95;;;;;;;11.70;77.73;97888.25;5052963;28;20049;-69
2021/05/21 04:20:13;;;;;;;8.57;1.77;;;;;;;11.70;77.45;97901.94;5047161;28;20441;-69
2021/05/21 04:22:40;;;;;;;8.05;1.80;;;;;;;11.65;77.52;97882.97;5042297;28;20413;-69
2021/05/21 04:25:07;;;;;;;5.50;1.60;;;;;;;11.74;77.14;97900.16;5044019;28;20048;-70
2021/05/21 04:27:33;;;;;;;3.53;1.55;;;;;;;11.69;76.76;97892.13;5036217;28;20045;-69
2021/05/21 04:30:00;;;;;;;7.53;1.77;;;;;;;11.69;77.38;97900.34;5034589;28;20071;-69
2021/05/21 04:32:26;;;;;;;6.35;1.98;;;;;;;11.87;76.81;97903.81;5034490;28;20056;-69
2021/05/21 04:34:52;;;;;;;4.50;1.80;;;;;;;11.77;77.02;97904.16;5042033;28;20045;-72
2021/05/21 04:37:19;;;;;;;4.70;1.60;;;;;;;11.78;77.01;97900.28;5033084;28;20056;-71
2021/05/21 04:39:45;;;;;;;15.98;1.65;;;;;;;11.80;76.97;97913.66;5036283;28;20049;-69
2021/05/21 04:42:11;;;;;;;9.05;1.60;;;;;;;11.84;76.75;97918.16;5031143;28;20119;-71
2021/05/21 04:44:37;;;;;;;4.47;1.67;;;;;;;11.88;76.44;97915.56;5049238;28;20045;-69
2021/05/21 04:47:04;;;;;;;9.45;1.50;;;;;;;11.86;76.67;97915.06;5050666;28;20094;-72
2021/05/21 04:49:34;;;;;;;5.57;1.60;;;;;;;11.75;76.89;97906.44;5040642;28;20524;-70
2021/05/21 04:52:02;;;;;;;3.45;1.45;;;;;;;11.88;76.55;97913.63;5033807;28;20387;-70
2021/05/21 04:54:28;;;;;;;10.25;1.65;;;;;;;11.86;76.48;97924.09;5038847;28;20139;-70
2021/05/21 04:56:55;;;;;;;8.40;1.48;;;;;;;11.79;76.59;97890.97;5050817;28;20044;-69
2021/05/21 04:59:21;;;;;;;2.33;1.40;;;;;;;11.78;76.94;97928.50;5046527;28;20382;-71
2021/05/21 05:01:47;;;;;;;5.72;1.60;;;;;;;11.82;77.46;97914.13;5046029;28;20053;-69
2021/05/21 05:04:14;;;;;;;5.22;1.60;;;;;;;11.62;77.88;97914.53;5034819;28;20055;-69
2021/05/21 05:06:41;;;;;;;5.82;1.98;;;;;;;11.69;78.04;97929.66;5044687;28;20132;-69
2021/05/21 05:09:07;;;;;;;3.50;1.60;;;;;;;11.66;78.79;97927.59;5045153;28;20072;-70
2021/05/21 05:11:33;;;;;;;3.88;1.77;;;;;;;11.63;78.58;97935.31;5046048;28;20126;-68
2021/05/21 05:13:59;;;;;;;5.10;1.80;;;;;;;11.63;78.45;97937.25;5032845;28;20045;-70
2021/05/21 05:16:27;;;;;;;4.53;1.80;;;;;;;11.67;78.73;97929.19;5031687;28;20059;-68
2021/05/21 05:18:54;;;;;;;5.45;1.80;;;;;;;11.68;78.81;97955.44;5034449;28;20236;-69
2021/05/21 05:21:21;;;;;;;4.22;1.88;;;;;;;11.83;78.06;97948.59;5040054;28;20715;-70
2021/05/21 05:23:47;;;;;;;7.25;2.20;;;;;;;11.94;77.58;97946.28;5048496;28;20164;-71
2021/05/21 05:26:15;;;;;;;8.32;2.40;;;;;;;12.10;77.01;97952.06;5036436;28;20053;-69
2021/05/21 05:28:42;;;;;;;;;;;;;;;12.26;76.69;97955.84;5045711;28;20477;-73
2021/05/21 05:31:08;;;;;;;9.10;2.10;;;;;;;12.27;76.53;97941.00;5050002;28;19924;-69
2021/05/21 05:33:35;;;;;;;4.70;1.92;;;;;;;12.25;76.61;97954.22;5052307;28;20071;-68
2021/05/21 05:36:03;;;;;;;6.85;1.70;;;;;;;12.05;77.12;97942.09;5050831;28;20143;-69
2021/05/21 05:38:31;;;;;;;7.43;1.83;;;;;;;11.89;77.38;97952.78;5046154;28;20048;-70
2021/05/21 05:40:57;;;;;;;5.72;1.92;;;;;;;12.01;77.10;97960.28;5048509;28;20091;-69
2021/05/21 05:43:24;;;;;;;5.50;1.88;;;;;;;11.93;77.30;97948.25;5040557;28;20111;-68
2021/05/21 05:45:50;;;;;;;7.97;1.83;;;;;;;12.10;77.00;97966.56;5042630;28;20048;-69
2021/05/21 05:48:20;;;;;;;8.30;1.90;;;;;;;12.10;76.94;97955.63;5050334;28;20127;-71
2021/05/21 05:50:47;;;;;;;6.50;1.85;;;;;;;12.25;76.39;97969.84;5033236;28;20049;-70
2021/05/21 05:53:13;;;;;;;5.15;1.60;;;;;;;12.29;76.37;97963.38;5051998;28;20049;-69
2021/05/21 05:55:41;;;;;;;6.65;1.92;;;;;;;12.34;75.93;97965.97;5048786;28;20163;-69
2021/05/21 05:58:07;;;;;;;;;;;;;;;12.41;76.27;97968.19;5051674;28;20090;-69
2021/05/21 06:00:34;;;;;;;6.57;1.75;;;;;;;12.33;76.07;97961.63;5050157;28;20019;-68
2021/05/21 06:03:05;;;;;;;3.13;1.40;;;;;;;12.47;75.75;97979.72;5034270;28;20041;-67
2021/05/21 06:05:32;;;;;;;3.60;1.50;;;;;;;12.53;75.38;97972.13;5036465;28;20546;-69
2021/05/21 06:08:00;;;;;;;8.00;1.60;;;;;;;12.58;74.78;97975.47;5051216;28;20061;-69
2021/05/21 06:10:26;;;;;;;4.85;1.60;;;;;;;12.77;74.46;97983.25;5046357;28;20046;-69
2021/05/21 06:13:01;;;;;;;9.38;1.58;;;;;;;12.72;74.72;97985.38;5039457;28;20136;-69
2021/05/21 06:15:27;;;;;;;4.60;1.50;;;;;;;12.60;74.83;97983.38;5047569;28;20673;-69
2021/05/21 06:17:53;;;;;;;4.05;1.25;;;;;;;12.50;75.47;97995.53;5035209;28;20070;-69
2021/05/21 06:20:20;;;;;;;4.87;1.40;;;;;;;12.32;75.83;97989.34;5048859;28;20115;-70
2021/05/21 06:22:46;;;;;;;4.57;1.40;;;;;;;12.17;75.98;97987.94;5049549;28;20044;-69
2021/05/21 06:25:13;;;;;;;2.78;1.20;;;;;;;12.20;75.70;97999.06;5033886;28;20421;-70
2021/05/21 06:27:39;;;;;;;6.35;1.40;;;;;;;12.37;75.23;97999.31;5047440;28;20045;-68
2021/05/21 06:30:11;;;;;;;4.90;1.25;;;;;;;12.40;74.70;97984.94;5048621;28;20037;-69
2021/05/21 06:32:37;;;;;;;3.05;1.40;;;;;;;12.53;74.32;98003.09;5049072;28;20436;-69
2021/05/21 06:35:03;;;;;;;4.43;1.40;;;;;;;12.75;73.40;98010.22;5046189;28;20091;-70
2021/05/21 06:37:30;;;;;;;2.63;1.30;;;;;;;12.98;72.77;98003.59;5048566;28;20102;-68
2021/05/21 06:39:56;;;;;;;3.28;1.30;;;;;;;13.11;71.85;97994.28;5030626;28;20064;-70
2021/05/21 06:42:22;;;;;;;11.85;1.27;;;;;;;13.23;71.37;98000.97;5045063;28;20117;-69
2021/05/21 06:44:48;;;;;;;6.88;1.35;;;;;;;13.28;71.22;98006.25;5046808;28;20528;-68
2021/05/21 06:47:15;;;;;;;10.65;1.27;;;;;;;13.12;71.40;98004.13;5043892;28;20041;-69
2021/05/21 06:49:42;;;;;;;5.75;1.42;;;;;;;13.07;71.67;98018.03;5045612;28;20143;-68
2021/05/21 06:52:08;;;;;;;5.43;1.85;;;;;;;13.32;70.84;98021.69;5048415;28;20080;-68
2021/05/21 06:54:37;;;;;;;7.43;1.25;;;;;;;13.32;71.02;98013.47;5045545;28;20148;-67
2021/05/21 06:57:03;;;;;;;4.28;1.45;;;;;;;13.29;71.00;98027.84;5045660;28;20059;-69
2021/05/21 06:59:29;;;;;;;3.33;1.50;;;;;;;13.22;71.25;98016.63;5045150;28;20045;-68
2021/05/21 07:01:55;;;;;;;4.05;1.13;;;;;;;13.12;71.66;98031.56;5044929;28;20041;-68
2021/05/21 07:04:23;;;;;;;2.08;1.20;;;;;;;13.14;71.32;98029.28;5032683;28;20049;-68
2021/05/21 07:06:49;;;;;;;8.32;1.42;;;;;;;13.07;71.16;98026.25;5047210;28;20053;-67
2021/05/21 07:09:15;;;;;;;3.78;1.27;;;;;;;13.03;70.98;98011.63;5041128;28;20446;-72
2021/05/21 07:11:41;;;;;;;3.50;1.20;;;;;;;13.16;70.83;98040.72;5044913;28;20103;-71
2021/05/21 07:14:10;;;;;;;4.93;1.50;;;;;;;13.26;70.38;98045.00;5030490;28;20160;-69
2021/05/21 07:16:36;;;;;;;11.82;1.50;;;;;;;13.39;70.55;98034.09;5048848;28;20083;-69
2021/05/21 07:19:02;;;;;;;4.43;1.50;;;;;;;13.65;68.82;98047.59;5046009;28;20049;-69
2021/05/21 07:21:29;;;;;;;3.45;1.30;;;;;;;13.90;67.87;98053.97;5045066;28;20059;-69
2021/05/21 07:24:04;;;;;;;6.20;1.73;;;;;;;13.92;67.34;98030.84;5050012;28;20049;-68
2021/05/21 07:26:31;;;;;;;6.75;1.60;;;;;;;14.23;67.25;98066.06;5042970;28;20536;-69
2021/05/21 07:28:57;;;;;;;5.55;1.58;;;;;;;14.41;66.60;98063.09;5041906;28;20033;-69
2021/05/21 07:31:27;;;;;;;6.20;1.40;;;;;;;14.14;66.75;98068.09;5038799;28;20057;-68
2021/05/21 07:33:53;;;;;;;5.97;1.50;;;;;;;13.94;67.69;98062.34;5036651;28;20481;-68
2021/05/21 07:36:19;;;;;;;6.97;1.43;;;;;;;14.00;67.96;98071.16;5041590;28;20053;-69
2021/05/21 07:38:46;;;;;;;3.92;1.63;;;;;;;14.30;66.97;98080.03;5040905;28;20044;-67
2021/05/21 07:41:13;;;;;;;7.75;1.50;;;;;;;14.29;67.57;98080.38;5048957;28;20150;-70
2021/05/21 07:43:40;;;;;;;;;;;;;;;14.13;67.67;98080.22;5050854;28;20131;-69
2021/05/21 07:46:09;;;;;;;4.72;1.40;;;;;;;14.36;66.86;98069.63;5051067;28;19947;-69
2021/05/21 07:48:35;;;;;;;4.13;1.42;;;;;;;14.31;66.47;98059.63;5050105;28;20053;-69
2021/05/21 07:51:02;;;;;;;5.70;1.58;;;;;;;14.44;66.62;98078.91;5051414;28;20053;-68
2021/05/21 07:53:31;;;;;;;5.60;1.63;;;;;;;14.40;66.30;98067.00;5055356;28;20606;-67
2021/05/21 07:55:59;;;;;;;6.78;1.60;;;;;;;14.38;66.83;98078.31;5044684;28;20145;-69
2021/05/21 07:58:25;;;;;;;5.88;1.52;;;;;;;14.28;66.76;98067.75;5043388;28;20033;-70
2021/05/21 08:00:52;;;;;;;5.43;1.50;;;;;;;14.44;66.16;98076.16;5044107;28;20056;-69
2021/05/21 08:03:19;;;;;;;2.95;1.48;;;;;;;14.73;65.31;98085.34;5052042;28;20304;-68
2021/05/21 08:05:47;;;;;;;12.23;1.43;;;;;;;15.15;64.24;98076.00;5051589;28;20053;-70
2021/05/21 08:08:14;;;;;;;14.70;1.95;;;;;;;15.37;63.33;98082.94;5050846;28;20541;-71
2021/05/21 08:10:40;;;;;;;2.10;1.10;;;;;;;15.24;63.34;98081.38;5053394;28;20484;-72
2021/05/21 08:13:07;;;;;;;6.35;1.52;;;;;;;15.36;63.37;98088.78;5027014;28;20053;-73
2021/05/21 08:15:33;;;;;;;4.25;1.40;;;;;;;15.13;63.36;98062.59;5054106;28;20123;-69
2021/05/21 08:17:59;;;;;;;5.85;1.38;;;;;;;15.19;63.02;98087.13;5044501;28;20081;-76
2021/05/21 08:20:25;;;;;;;6.05;1.33;;;;;;;15.10;63.25;98093.56;5044320;28;20517;-69
2021/05/21 08:22:51;;;;;;;7.88;1.63;;;;;;;14.98;63.25;98102.66;5053042;28;20082;-70
2021/05/21 08:25:19;;;;;;;7.85;1.70;;;;;;;14.86;63.30;98102.66;5048523;28;20049;-70
2021/05/21 08:27:45;;;;;;;16.58;1.75;;;;;;;14.98;62.86;98094.38;5049873;28;20547;-68
2021/05/21 08:30:14;;;;;;;8.90;1.70;;;;;;;15.32;62.06;98100.50;5049955;28;20037;-68
2021/05/21 08:32:40;;;;;;;4.82;1.35;;;;;;;15.56;61.58;98106.28;5048697;28;20130;-70
2021/05/21 08:35:07;;;;;;;4.80;1.42;;;;;;;15.72;61.21;98115.41;5048524;28;20044;-70
2021/05/21 08:37:35;;;;;;;20.67;1.80;;;;;;;15.73;60.62;98114.25;5035182;28;20076;-68
2021/05/21 08:40:01;;;;;;;6.65;1.40;;;;;;;15.82;60.91;98116.09;5051989;28;20041;-73
2021/05/21 08:42:30;;;;;;;;;;;;;;;15.91;61.51;98116.75;5053189;28;20041;-71
2021/05/21 08:44:57;;;;;;;4.47;1.50;;;;;;;15.75;60.78;98105.66;5050815;28;19932;-71
2021/05/21 08:47:24;;;;;;;6.97;1.25;;;;;;;16.03;60.07;98124.16;5046774;28;20045;-69
2021/05/21 08:49:50;;;;;;;4.75;1.00;;;;;;;16.23;59.34;98111.28;5044410;28;20042;-69
2021/05/21 08:52:17;;;;;;;5.60;1.42;;;;;;;16.27;58.98;98127.94;5049682;28;20052;-71
2021/05/21 08:54:45;;;;;;;4.85;1.45;;;;;;;16.24;59.15;98123.13;5051891;28;20078;-71
2021/05/21 08:57:11;;;;;;;4.57;1.10;;;;;;;16.09;59.36;98121.97;5050617;28;20095;-69
2021/05/21 08:59:38;;;;;;;3.17;1.30;;;;;;;15.84;59.86;98136.63;5047374;28;20076;-70
2021/05/21 09:02:10;;;;;;;5.13;1.60;;;;;;;15.91;59.96;98140.75;5045775;28;20138;-70
2021/05/21 09:04:46;;;;;;;11.38;1.65;;;;;;;15.66;60.65;98144.38;5051883;28;20049;-71
2021/05/21 09:07:21;;;;;;;22.75;1.50;;;;;;;15.34;60.79;98154.44;5052686;28;20538;-69
2021/05/21 09:09:47;;;;;;;12.18;1.30;;;;;;;15.27;61.01;98155.00;5047952;28;20052;-69
2021/05/21 09:12:13;;;;;;;9.85;1.10;;;;;;;15.28;60.84;98157.44;5050767;28;20057;-69
2021/05/21 09:14:39;;;;;;;9.02;1.55;;;;;;;15.36;60.70;98139.19;5048147;28;20135;-70
2021/05/21 09:17:23;;;;;;;2.22;1.20;;;;;;;15.60;60.22;98156.78;5047891;28;20079;-68
2021/05/21 09:19:50;;;;;;;6.25;1.40;;;;;;;15.76;59.88;98167.06;5059340;28;20041;-71
2021/05/21 09:22:16;;;;;;;6.13;1.42;;;;;;;15.75;59.51;98160.75;5042223;28;20156;-70
2021/05/21 09:24:45;;;;;;;9.30;1.60;;;;;;;15.68;58.89;98180.63;5047414;28;20493;-70
2021/05/21 09:27:12;;;;;;;27.55;1.95;;;;;;;15.36;59.23;98185.16;5045196;28;20513;-68
2021/05/21 09:29:44;;;;;;;15.85;1.60;;;;;;;15.14;59.99;98190.84;5040890;28;20059;-68
2021/05/21 09:32:27;;;;;;;8.23;1.00;;;;;;;14.99;59.33;98194.28;5047543;28;20047;-67
2021/05/21 09:35:11;;;;;;;15.23;1.45;;;;;;;14.86;58.76;98187.94;5047303;28;20041;-70
2021/05/21 09:37:42;;;;;;;10.93;1.20;;;;;;;14.86;59.51;98188.75;5035396;28;20080;-70
2021/05/21 09:40:14;;;;;;;5.65;1.10;;;;;;;14.44;61.17;98197.94;5039700;28;20045;-69
2021/05/21 09:42:49;;;;;;;7.22;1.10;;;;;;;14.46;60.98;98195.66;5052219;28;20148;-67
2021/05/21 09:45:27;;;;;;;6.07;1.30;;;;;;;15.00;59.47;98201.38;5051688;28;20059;-71
2021/05/21 09:47:59;;;;;;;4.35;1.52;;;;;;;14.85;58.92;98211.91;5044884;28;20045;-70
2021/05/21 09:50:38;;;;;;;9.90;1.40;;;;;;;15.19;57.76;98198.03;5051392;28;20053;-70
2021/05/21 09:53:06;;;;;;;10.98;1.40;;;;;;;15.35;57.20;98205.59;5048688;28;20057;-69
2021/05/21 09:55:36;;;;;;;9.02;1.17;;;;;;;15.80;55.95;98225.84;5042066;28;20107;-69
2021/05/21 09:58:02;;;;;;;3.75;1.30;;;;;;;15.86;56.03;98229.97;5036064;28;20062;-69
2021/05/21 10:00:29;;;;;;;6.75;1.50;;;;;;;15.85;55.89;98223.66;5043156;28;20056;-72
2021/05/21 10:02:56;;;;;;;9.60;1.50;;;;;;;15.48;56.76;98223.72;5049812;28;20041;-70
2021/05/21 10:05:22;;;;;;;7.85;1.23;;;;;;;15.85;56.26;98231.09;5045915;28;20063;-70
2021/05/21 10:07:52;;;;;;;12.40;1.30;;;;;;;15.98;55.53;98229.13;5050517;28;20057;-69
2021/05/21 10:10:21;;;;;;;7.35;1.20;;;;;;;16.01;56.04;98231.22;5051256;28;20045;-69
2021/05/21 10:12:48;;;;;;;1.20;0.80;;;;;;;15.80;56.02;98250.66;5032607;28;20053;-71
2021/05/21 10:15:14;;;;;;;10.07;1.80;;;;;;;15.93;55.86;98244.00;5033171;28;20073;-69
2021/05/21 10:17:42;;;;;;;14.82;3.15;;;;;;;16.09;56.31;98249.56;5048774;28;20053;-70
2021/05/21 10:20:12;;;;;;;6.80;1.77;;;;;;;15.45;57.75;98263.78;5032650;28;20140;-70
2021/05/21 10:22:40;;;;;;;9.95;1.58;;;;;;;15.04;58.66;98254.59;5052002;28;20052;-71
2021/05/21 10:25:10;;;;;;;;;;;;;;;15.21;58.69;98261.81;5048389;28;20045;-71
2021/05/21 10:27:40;;;;;;;8.75;1.52;;;;;;;15.64;57.87;98278.09;5036585;28;20404;-74
2021/05/21 10:30:08;;;;;;;7.57;1.15;;;;;;;15.46;57.68;98275.59;5032972;28;20060;-73
2021/05/21 10:32:35;;;;;;;7.97;0.93;;;;;;;15.76;56.47;98272.56;5048632;28;20140;-69
2021/05/21 10:35:18;;;;;;;4.85;0.88;;;;;;;15.25;57.16;98284.78;5051065;28;20059;-69
2021/05/21 10:38:17;;;;;;;7.97;1.25;;;;;;;15.00;58.00;98290.22;5049500;28;20531;-68
2021/05/21 10:41:16;;;;;;;8.95;1.25;;;;;;;14.91;58.26;98297.78;5032276;28;20056;-66
2021/05/21 10:43:54;;;;;;;10.50;1.30;;;;;;;15.48;56.90;98287.06;5047382;28;20045;-66
2021/05/21 10:46:42;;;;;;;5.97;1.20;;;;;;;15.52;56.93;98287.19;5041591;28;20052;-66
2021/05/21 10:49:20;;;;;;;7.00;1.38;;;;;;;15.85;56.38;98300.81;5050854;28;20048;-69
2021/05/21 10:51:50;;;;;;;7.45;1.30;;;;;;;15.89;56.07;98298.19;5048042;28;20129;-66
2021/05/21 10:54:28;;;;;;;12.05;1.60;;;;;;;16.18;55.45;98307.31;5050132;28;20138;-64
2021/05/21 10:57:07;;;;;;;15.77;1.33;;;;;;;16.29;54.79;98315.88;5037181;28;20048;-66
2021/05/21 10:59:43;;;;;;;2.85;1.02;;;;;;;16.28;54.46;98312.34;5045882;28;20141;-67
2021/05/21 11:02:12;;;;;;;6.57;1.20;;;;;;;16.11;54.87;98321.69;5049676;28;20489;-66
2021/05/21 11:04:38;;;;;;;5.90;1.10;;;;;;;16.08;55.05;98324.31;5049302;28;20505;-67
2021/05/21 11:07:06;;;;;;;7.50;1.48;;;;;;;16.12;55.14;98328.81;5051177;28;20132;-64
2021/05/21 11:09:43;;;;;;;5.78;1.20;;;;;;;16.19;55.03;98328.22;5050499;28;20037;-66
2021/05/21 11:12:15;;;;;;;5.07;1.65;;;;;;;16.19;55.38;98330.19;5049213;28;20413;-65
2021/05/21 11:14:46;;;;;;;10.00;1.50;;;;;;;16.18;55.39;98339.59;5051550;28;20505;-65
2021/05/21 11:17:20;;;;;;;7.45;1.42;;;;;;;16.23;55.57;98337.38;5047093;28;20049;-64
2021/05/21 11:19:49;;;;;;;5.90;1.35;;;;;;;16.01;55.97;98339.50;5046628;28;20068;-65
2021/05/21 11:22:28;;;;;;;9.77;1.50;;;;;;;15.81;55.83;98346.72;5045532;28;20411;-66
2021/05/21 11:24:56;;;;;;;9.50;1.40;;;;;;;15.20;56.05;98347.50;5049600;28;20304;-65
2021/05/21 11:27:25;;;;;;;13.68;1.38;;;;;;;15.50;55.05;98350.06;5049322;28;20067;-66
2021/05/21 11:29:53;;;;;;;9.57;1.50;;;;;;;15.24;54.80;98364.94;5038363;28;20555;-65
2021/05/21 11:32:21;;;;;;;6.65;1.30;;;;;;;15.36;54.31;98375.16;5031593;28;20037;-65
2021/05/21 11:34:48;;;;;;;14.77;1.70;;;;;;;15.41;54.52;98381.25;5048194;28;20049;-65